sensor_id;sensor_type;location;lat;lon;timestamp;P1;durP1;ratioP1;P2;durP2;ratioP2
16510;SDS011;8368;48.772;8.754;2023-03-01T00:01:23;7.77;;;5.60;;
16510;SDS011;8368;48.772;8.754;2023-03-01T00:03:51;6.53;;;4.73;;
16510;SDS011;8368;48.772;8.754;2023-03-01T00:06:18;8.20;;;5.33;;
16510;SDS011;8368;48.772;8.754;2023-03-01T00:08:45;6.07;;;4.13;;
16510;SDS011;8368;48.772;8.754;2023-03-01T00:11:15;6.67;;;4.87;;
16510;SDS011;8368;48.772;8.754;2023-03-01T00:13:46;7.60;;;5.70;;
16510;SDS011;8368;48.772;8.754;2023-03-01T00:16:13;6.80;;;4.97;;
16510;SDS011;8368;48.772;8.754;2023-03-01T00:18:43;7.43;;;4.90;;
16510;SDS011;8368;48.772;8.754;2023-03-01T00:21:08;8.97;;;5.60;;
16510;SDS011;8368;48.772;8.754;2023-03-01T00:23:35;9.73;;;5.60;;
16510;SDS011;8368;48.772;8.754;2023-03-01T00:26:02;6.47;;;5.00;;
16510;SDS011;8368;48.772;8.754;2023-03-01T00:28:31;9.03;;;5.00;;
16510;SDS011;8368;48.772;8.754;2023-03-01T00:31:02;7.20;;;5.23;;
16510;SDS011;8368;48.772;8.754;2023-03-01T00:33:28;6.87;;;3.70;;
16510;SDS011;8368;48.772;8.754;2023-03-01T00:35:54;9.03;;;4.77;;
16510;SDS011;8368;48.772;8.754;2023-03-01T00:38:19;6.40;;;4.67;;
16510;SDS011;8368;48.772;8.754;2023-03-01T00:40:45;11.13;;;5.97;;
16510;SDS011;8368;48.772;8.754;2023-03-01T00:43:10;6.40;;;4.40;;
16510;SDS011;8368;48.772;8.754;2023-03-01T00:45:36;8.27;;;4.13;;
16510;SDS011;8368;48.772;8.754;2023-03-01T00:48:01;10.60;;;6.00;;
16510;SDS011;8368;48.772;8.754;2023-03-01T00:50:27;10.13;;;6.63;;
16510;SDS011;8368;48.772;8.754;2023-03-01T00:52:53;13.77;;;5.40;;
16510;SDS011;8368;48.772;8.754;2023-03-01T00:55:20;12.07;;;5.37;;
16510;SDS011;8368;48.772;8.754;2023-03-01T00:57:45;9.27;;;5.80;;
16510;SDS011;8368;48.772;8.754;2023-03-01T01:00:11;7.80;;;4.83;;
16510;SDS011;8368;48.772;8.754;2023-03-01T01:02:37;6.43;;;4.80;;
16510;SDS011;8368;48.772;8.754;2023-03-01T01:05:03;11.83;;;5.80;;
16510;SDS011;8368;48.772;8.754;2023-03-01T01:07:29;6.80;;;3.90;;
16510;SDS011;8368;48.772;8.754;2023-03-01T01:09:55;12.30;;;4.67;;
16510;SDS011;8368;48.772;8.754;2023-03-01T01:12:20;8.73;;;4.03;;
16510;SDS011;8368;48.772;8.754;2023-03-01T01:14:46;6.87;;;5.23;;
16510;SDS011;8368;48.772;8.754;2023-03-01T01:17:11;6.67;;;4.13;;
16510;SDS011;8368;48.772;8.754;2023-03-01T01:19:37;8.30;;;4.57;;
16510;SDS011;8368;48.772;8.754;2023-03-01T01:22:02;7.40;;;4.50;;
16510;SDS011;8368;48.772;8.754;2023-03-01T01:24:28;10.50;;;5.83;;
16510;SDS011;8368;48.772;8.754;2023-03-01T01:26:54;5.63;;;4.63;;
16510;SDS011;8368;48.772;8.754;2023-03-01T01:29:20;7.03;;;5.03;;
16510;SDS011;8368;48.772;8.754;2023-03-01T01:31:46;6.53;;;4.73;;
16510;SDS011;8368;48.772;8.754;2023-03-01T01:34:15;8.70;;;5.23;;
16510;SDS011;8368;48.772;8.754;2023-03-01T01:36:42;9.73;;;5.47;;
16510;SDS011;8368;48.772;8.754;2023-03-01T01:39:09;13.50;;;4.60;;
16510;SDS011;8368;48.772;8.754;2023-03-01T01:41:38;9.53;;;5.73;;
16510;SDS011;8368;48.772;8.754;2023-03-01T01:44:16;6.03;;;5.23;;
16510;SDS011;8368;48.772;8.754;2023-03-01T01:46:46;7.73;;;5.07;;
16510;SDS011;8368;48.772;8.754;2023-03-01T01:49:17;9.43;;;5.73;;
16510;SDS011;8368;48.772;8.754;2023-03-01T01:54:54;11.73;;;6.23;;
16510;SDS011;8368;48.772;8.754;2023-03-01T01:57:28;12.47;;;6.17;;
16510;SDS011;8368;48.772;8.754;2023-03-01T01:59:59;10.83;;;5.13;;
16510;SDS011;8368;48.772;8.754;2023-03-01T02:02:29;9.80;;;5.00;;
16510;SDS011;8368;48.772;8.754;2023-03-01T02:04:58;8.83;;;5.47;;
16510;SDS011;8368;48.772;8.754;2023-03-01T02:07:35;7.63;;;5.13;;
16510;SDS011;8368;48.772;8.754;2023-03-01T02:10:03;7.87;;;6.07;;
16510;SDS011;8368;48.772;8.754;2023-03-01T02:12:30;11.10;;;4.97;;
16510;SDS011;8368;48.772;8.754;2023-03-01T02:14:56;11.00;;;4.80;;
16510;SDS011;8368;48.772;8.754;2023-03-01T02:17:21;8.63;;;6.43;;
16510;SDS011;8368;48.772;8.754;2023-03-01T02:19:54;9.60;;;6.07;;
16510;SDS011;8368;48.772;8.754;2023-03-01T02:22:43;8.87;;;6.00;;
16510;SDS011;8368;48.772;8.754;2023-03-01T02:28:08;7.73;;;5.23;;
16510;SDS011;8368;48.772;8.754;2023-03-01T02:30:40;5.13;;;4.13;;
16510;SDS011;8368;48.772;8.754;2023-03-01T02:33:27;11.43;;;5.13;;
16510;SDS011;8368;48.772;8.754;2023-03-01T02:35:53;8.60;;;5.80;;
16510;SDS011;8368;48.772;8.754;2023-03-01T02:38:20;8.53;;;4.90;;
16510;SDS011;8368;48.772;8.754;2023-03-01T02:40:46;9.83;;;5.37;;
16510;SDS011;8368;48.772;8.754;2023-03-01T02:43:15;6.80;;;4.90;;
16510;SDS011;8368;48.772;8.754;2023-03-01T02:45:52;8.10;;;5.63;;
16510;SDS011;8368;48.772;8.754;2023-03-01T02:48:21;5.73;;;4.80;;
16510;SDS011;8368;48.772;8.754;2023-03-01T02:51:04;6.77;;;4.57;;
16510;SDS011;8368;48.772;8.754;2023-03-01T02:53:48;6.07;;;4.83;;
16510;SDS011;8368;48.772;8.754;2023-03-01T02:56:18;9.43;;;5.77;;
16510;SDS011;8368;48.772;8.754;2023-03-01T02:58:44;6.50;;;5.47;;
16510;SDS011;8368;48.772;8.754;2023-03-01T03:01:12;9.27;;;4.70;;
16510;SDS011;8368;48.772;8.754;2023-03-01T03:03:40;7.90;;;4.93;;
16510;SDS011;8368;48.772;8.754;2023-03-01T03:06:05;9.63;;;5.37;;
16510;SDS011;8368;48.772;8.754;2023-03-01T03:08:31;9.27;;;6.07;;
16510;SDS011;8368;48.772;8.754;2023-03-01T03:10:56;7.67;;;5.70;;
16510;SDS011;8368;48.772;8.754;2023-03-01T03:13:22;7.23;;;5.50;;
16510;SDS011;8368;48.772;8.754;2023-03-01T03:15:53;17.63;;;8.33;;
16510;SDS011;8368;48.772;8.754;2023-03-01T03:18:22;11.97;;;7.37;;
16510;SDS011;8368;48.772;8.754;2023-03-01T03:20:50;9.63;;;6.17;;
16510;SDS011;8368;48.772;8.754;2023-03-01T03:23:18;9.03;;;6.30;;
16510;SDS011;8368;48.772;8.754;2023-03-01T03:25:44;10.33;;;5.50;;
16510;SDS011;8368;48.772;8.754;2023-03-01T03:28:12;11.70;;;6.10;;
16510;SDS011;8368;48.772;8.754;2023-03-01T03:30:38;10.87;;;6.60;;
16510;SDS011;8368;48.772;8.754;2023-03-01T03:33:05;8.03;;;4.90;;
16510;SDS011;8368;48.772;8.754;2023-03-01T03:35:33;14.83;;;6.63;;
16510;SDS011;8368;48.772;8.754;2023-03-01T03:38:10;8.73;;;6.90;;
16510;SDS011;8368;48.772;8.754;2023-03-01T03:40:44;8.10;;;5.57;;
16510;SDS011;8368;48.772;8.754;2023-03-01T03:43:14;11.47;;;6.83;;
16510;SDS011;8368;48.772;8.754;2023-03-01T03:45:43;14.10;;;6.47;;
16510;SDS011;8368;48.772;8.754;2023-03-01T03:48:09;11.20;;;7.00;;
16510;SDS011;8368;48.772;8.754;2023-03-01T03:50:35;12.50;;;6.53;;
16510;SDS011;8368;48.772;8.754;2023-03-01T03:53:03;8.93;;;5.77;;
16510;SDS011;8368;48.772;8.754;2023-03-01T03:55:31;11.17;;;6.87;;
16510;SDS011;8368;48.772;8.754;2023-03-01T03:57:58;8.03;;;5.77;;
16510;SDS011;8368;48.772;8.754;2023-03-01T04:00:27;9.13;;;5.87;;
16510;SDS011;8368;48.772;8.754;2023-03-01T04:02:53;5.50;;;5.03;;
16510;SDS011;8368;48.772;8.754;2023-03-01T04:05:21;9.07;;;6.10;;
16510;SDS011;8368;48.772;8.754;2023-03-01T04:07:47;7.07;;;5.60;;
16510;SDS011;8368;48.772;8.754;2023-03-01T04:10:14;10.37;;;5.63;;
16510;SDS011;8368;48.772;8.754;2023-03-01T04:12:41;9.97;;;5.80;;
16510;SDS011;8368;48.772;8.754;2023-03-01T04:15:08;9.67;;;5.83;;
16510;SDS011;8368;48.772;8.754;2023-03-01T04:17:41;8.10;;;5.80;;
16510;SDS011;8368;48.772;8.754;2023-03-01T04:20:12;9.30;;;5.80;;
16510;SDS011;8368;48.772;8.754;2023-03-01T04:22:42;10.30;;;5.80;;
16510;SDS011;8368;48.772;8.754;2023-03-01T04:25:11;9.13;;;6.17;;
16510;SDS011;8368;48.772;8.754;2023-03-01T04:27:39;7.73;;;6.10;;
16510;SDS011;8368;48.772;8.754;2023-03-01T04:30:06;8.90;;;7.23;;
16510;SDS011;8368;48.772;8.754;2023-03-01T04:32:32;6.00;;;5.33;;
16510;SDS011;8368;48.772;8.754;2023-03-01T04:34:57;11.00;;;6.33;;
16510;SDS011;8368;48.772;8.754;2023-03-01T04:37:23;11.10;;;6.33;;
16510;SDS011;8368;48.772;8.754;2023-03-01T04:39:50;5.70;;;5.13;;
16510;SDS011;8368;48.772;8.754;2023-03-01T04:42:15;10.20;;;6.27;;
16510;SDS011;8368;48.772;8.754;2023-03-01T04:44:41;11.47;;;6.67;;
16510;SDS011;8368;48.772;8.754;2023-03-01T04:47:08;10.00;;;5.77;;
16510;SDS011;8368;48.772;8.754;2023-03-01T04:49:33;9.57;;;6.43;;
16510;SDS011;8368;48.772;8.754;2023-03-01T04:51:59;9.83;;;6.37;;
16510;SDS011;8368;48.772;8.754;2023-03-01T04:54:26;7.13;;;5.30;;
16510;SDS011;8368;48.772;8.754;2023-03-01T04:56:55;6.77;;;5.90;;
16510;SDS011;8368;48.772;8.754;2023-03-01T04:59:21;9.17;;;4.93;;
16510;SDS011;8368;48.772;8.754;2023-03-01T05:01:47;8.70;;;5.73;;
16510;SDS011;8368;48.772;8.754;2023-03-01T05:04:14;9.20;;;6.30;;
16510;SDS011;8368;48.772;8.754;2023-03-01T05:06:39;9.40;;;6.53;;
16510;SDS011;8368;48.772;8.754;2023-03-01T05:09:05;8.73;;;5.50;;
16510;SDS011;8368;48.772;8.754;2023-03-01T05:11:31;8.07;;;6.40;;
16510;SDS011;8368;48.772;8.754;2023-03-01T05:14:00;11.83;;;6.87;;
16510;SDS011;8368;48.772;8.754;2023-03-01T05:16:27;8.97;;;6.07;;
16510;SDS011;8368;48.772;8.754;2023-03-01T05:18:53;7.40;;;5.63;;
16510;SDS011;8368;48.772;8.754;2023-03-01T05:21:20;12.97;;;6.27;;
16510;SDS011;8368;48.772;8.754;2023-03-01T05:23:46;9.20;;;5.93;;
16510;SDS011;8368;48.772;8.754;2023-03-01T05:26:12;9.77;;;6.43;;
16510;SDS011;8368;48.772;8.754;2023-03-01T05:28:38;7.70;;;6.10;;
16510;SDS011;8368;48.772;8.754;2023-03-01T05:31:04;8.23;;;6.23;;
16510;SDS011;8368;48.772;8.754;2023-03-01T05:33:35;11.77;;;7.27;;
16510;SDS011;8368;48.772;8.754;2023-03-01T05:36:05;8.53;;;5.67;;
16510;SDS011;8368;48.772;8.754;2023-03-01T05:38:32;8.47;;;6.03;;
16510;SDS011;8368;48.772;8.754;2023-03-01T05:40:58;9.57;;;6.23;;
16510;SDS011;8368;48.772;8.754;2023-03-01T05:43:24;17.90;;;7.43;;
16510;SDS011;8368;48.772;8.754;2023-03-01T05:45:49;10.73;;;7.00;;
16510;SDS011;8368;48.772;8.754;2023-03-01T05:48:15;11.80;;;7.30;;
16510;SDS011;8368;48.772;8.754;2023-03-01T05:50:41;10.93;;;5.83;;
16510;SDS011;8368;48.772;8.754;2023-03-01T05:53:26;17.67;;;5.60;;
16510;SDS011;8368;48.772;8.754;2023-03-01T05:55:52;9.10;;;5.53;;
16510;SDS011;8368;48.772;8.754;2023-03-01T05:58:18;12.10;;;6.67;;
16510;SDS011;8368;48.772;8.754;2023-03-01T06:00:45;10.03;;;5.93;;
16510;SDS011;8368;48.772;8.754;2023-03-01T06:03:13;12.13;;;7.23;;
16510;SDS011;8368;48.772;8.754;2023-03-01T06:05:41;11.80;;;7.57;;
16510;SDS011;8368;48.772;8.754;2023-03-01T06:08:07;12.97;;;7.47;;
16510;SDS011;8368;48.772;8.754;2023-03-01T06:10:35;10.37;;;6.33;;
16510;SDS011;8368;48.772;8.754;2023-03-01T06:13:00;11.13;;;7.20;;
16510;SDS011;8368;48.772;8.754;2023-03-01T06:15:26;8.20;;;6.07;;
16510;SDS011;8368;48.772;8.754;2023-03-01T06:17:53;13.80;;;7.00;;
16510;SDS011;8368;48.772;8.754;2023-03-01T06:20:22;6.77;;;5.63;;
16510;SDS011;8368;48.772;8.754;2023-03-01T06:22:49;14.00;;;6.37;;
16510;SDS011;8368;48.772;8.754;2023-03-01T06:25:16;10.93;;;7.50;;
16510;SDS011;8368;48.772;8.754;2023-03-01T06:27:44;10.57;;;6.83;;
16510;SDS011;8368;48.772;8.754;2023-03-01T06:30:11;10.73;;;7.10;;
16510;SDS011;8368;48.772;8.754;2023-03-01T06:32:38;12.93;;;7.47;;
16510;SDS011;8368;48.772;8.754;2023-03-01T06:35:07;12.63;;;6.70;;
16510;SDS011;8368;48.772;8.754;2023-03-01T06:37:33;8.63;;;6.67;;
16510;SDS011;8368;48.772;8.754;2023-03-01T06:40:00;10.43;;;7.13;;
16510;SDS011;8368;48.772;8.754;2023-03-01T06:42:29;8.23;;;5.60;;
16510;SDS011;8368;48.772;8.754;2023-03-01T06:44:55;10.90;;;6.47;;
16510;SDS011;8368;48.772;8.754;2023-03-01T06:47:20;10.93;;;6.00;;
16510;SDS011;8368;48.772;8.754;2023-03-01T06:49:46;8.50;;;5.97;;
16510;SDS011;8368;48.772;8.754;2023-03-01T06:52:11;12.60;;;7.20;;
16510;SDS011;8368;48.772;8.754;2023-03-01T06:54:37;12.30;;;5.67;;
16510;SDS011;8368;48.772;8.754;2023-03-01T06:57:02;10.33;;;5.73;;
16510;SDS011;8368;48.772;8.754;2023-03-01T06:59:28;9.73;;;7.30;;
16510;SDS011;8368;48.772;8.754;2023-03-01T07:01:53;11.33;;;7.00;;
16510;SDS011;8368;48.772;8.754;2023-03-01T07:04:19;12.87;;;6.57;;
16510;SDS011;8368;48.772;8.754;2023-03-01T07:06:44;11.70;;;6.20;;
16510;SDS011;8368;48.772;8.754;2023-03-01T07:09:10;8.03;;;4.83;;
16510;SDS011;8368;48.772;8.754;2023-03-01T07:11:35;9.03;;;5.77;;
16510;SDS011;8368;48.772;8.754;2023-03-01T07:14:01;10.47;;;5.50;;
16510;SDS011;8368;48.772;8.754;2023-03-01T07:16:27;10.00;;;6.53;;
16510;SDS011;8368;48.772;8.754;2023-03-01T07:18:52;8.43;;;5.60;;
16510;SDS011;8368;48.772;8.754;2023-03-01T07:21:18;10.03;;;6.03;;
16510;SDS011;8368;48.772;8.754;2023-03-01T07:23:43;12.80;;;6.57;;
16510;SDS011;8368;48.772;8.754;2023-03-01T07:26:11;9.03;;;5.63;;
16510;SDS011;8368;48.772;8.754;2023-03-01T07:28:37;9.40;;;6.03;;
16510;SDS011;8368;48.772;8.754;2023-03-01T07:31:04;10.03;;;5.80;;
16510;SDS011;8368;48.772;8.754;2023-03-01T07:33:30;9.60;;;6.33;;
16510;SDS011;8368;48.772;8.754;2023-03-01T07:36:00;15.17;;;7.30;;
16510;SDS011;8368;48.772;8.754;2023-03-01T07:38:28;11.20;;;6.50;;
16510;SDS011;8368;48.772;8.754;2023-03-01T07:40:59;10.13;;;6.50;;
16510;SDS011;8368;48.772;8.754;2023-03-01T07:43:27;9.60;;;5.83;;
16510;SDS011;8368;48.772;8.754;2023-03-01T07:45:53;9.20;;;6.27;;
16510;SDS011;8368;48.772;8.754;2023-03-01T07:48:19;16.37;;;6.83;;
16510;SDS011;8368;48.772;8.754;2023-03-01T07:50:44;9.77;;;6.43;;
16510;SDS011;8368;48.772;8.754;2023-03-01T07:53:10;8.87;;;5.57;;
16510;SDS011;8368;48.772;8.754;2023-03-01T07:55:36;11.97;;;7.13;;
16510;SDS011;8368;48.772;8.754;2023-03-01T07:58:02;8.87;;;6.50;;
16510;SDS011;8368;48.772;8.754;2023-03-01T08:00:27;9.23;;;6.27;;
16510;SDS011;8368;48.772;8.754;2023-03-01T08:02:53;12.67;;;7.23;;
16510;SDS011;8368;48.772;8.754;2023-03-01T08:05:18;9.67;;;6.80;;
16510;SDS011;8368;48.772;8.754;2023-03-01T08:07:44;6.80;;;6.00;;
16510;SDS011;8368;48.772;8.754;2023-03-01T08:10:10;10.27;;;6.73;;
16510;SDS011;8368;48.772;8.754;2023-03-01T08:12:36;15.67;;;6.83;;
16510;SDS011;8368;48.772;8.754;2023-03-01T08:15:01;8.60;;;5.70;;
16510;SDS011;8368;48.772;8.754;2023-03-01T08:17:27;14.40;;;7.00;;
16510;SDS011;8368;48.772;8.754;2023-03-01T08:19:52;13.13;;;7.37;;
16510;SDS011;8368;48.772;8.754;2023-03-01T08:22:18;8.27;;;5.73;;
16510;SDS011;8368;48.772;8.754;2023-03-01T08:24:43;9.47;;;6.30;;
16510;SDS011;8368;48.772;8.754;2023-03-01T08:27:09;10.90;;;7.30;;
16510;SDS011;8368;48.772;8.754;2023-03-01T08:29:35;11.53;;;6.60;;
16510;SDS011;8368;48.772;8.754;2023-03-01T08:32:01;13.77;;;7.43;;
16510;SDS011;8368;48.772;8.754;2023-03-01T08:34:26;9.20;;;6.43;;
16510;SDS011;8368;48.772;8.754;2023-03-01T08:36:52;13.23;;;7.73;;
16510;SDS011;8368;48.772;8.754;2023-03-01T08:39:18;9.70;;;6.43;;
16510;SDS011;8368;48.772;8.754;2023-03-01T08:41:45;12.87;;;7.87;;
16510;SDS011;8368;48.772;8.754;2023-03-01T08:44:11;15.77;;;8.00;;
16510;SDS011;8368;48.772;8.754;2023-03-01T08:46:39;11.23;;;6.67;;
16510;SDS011;8368;48.772;8.754;2023-03-01T08:49:06;14.37;;;6.67;;
16510;SDS011;8368;48.772;8.754;2023-03-01T08:51:34;12.90;;;6.47;;
16510;SDS011;8368;48.772;8.754;2023-03-01T08:54:20;8.57;;;6.73;;
16510;SDS011;8368;48.772;8.754;2023-03-01T08:56:46;13.67;;;7.40;;
16510;SDS011;8368;48.772;8.754;2023-03-01T08:59:13;12.07;;;6.57;;
16510;SDS011;8368;48.772;8.754;2023-03-01T09:01:40;11.73;;;5.87;;
16510;SDS011;8368;48.772;8.754;2023-03-01T09:04:08;12.17;;;6.00;;
16510;SDS011;8368;48.772;8.754;2023-03-01T09:06:34;9.37;;;6.33;;
16510;SDS011;8368;48.772;8.754;2023-03-01T09:09:00;11.03;;;7.47;;
16510;SDS011;8368;48.772;8.754;2023-03-01T09:11:27;10.03;;;6.27;;
16510;SDS011;8368;48.772;8.754;2023-03-01T09:13:53;11.87;;;7.57;;
16510;SDS011;8368;48.772;8.754;2023-03-01T09:16:19;10.70;;;6.50;;
16510;SDS011;8368;48.772;8.754;2023-03-01T09:18:49;9.80;;;7.50;;
16510;SDS011;8368;48.772;8.754;2023-03-01T09:21:17;14.67;;;7.77;;
16510;SDS011;8368;48.772;8.754;2023-03-01T09:23:44;9.63;;;6.13;;
16510;SDS011;8368;48.772;8.754;2023-03-01T09:26:15;12.47;;;6.63;;
16510;SDS011;8368;48.772;8.754;2023-03-01T09:28:44;11.20;;;6.87;;
16510;SDS011;8368;48.772;8.754;2023-03-01T09:31:10;10.20;;;6.97;;
16510;SDS011;8368;48.772;8.754;2023-03-01T09:33:39;10.93;;;6.73;;
16510;SDS011;8368;48.772;8.754;2023-03-01T09:36:07;9.47;;;5.97;;
16510;SDS011;8368;48.772;8.754;2023-03-01T09:38:35;9.37;;;6.10;;
16510;SDS011;8368;48.772;8.754;2023-03-01T09:41:01;9.77;;;6.90;;
16510;SDS011;8368;48.772;8.754;2023-03-01T09:43:42;14.67;;;7.07;;
16510;SDS011;8368;48.772;8.754;2023-03-01T09:46:12;10.90;;;8.30;;
16510;SDS011;8368;48.772;8.754;2023-03-01T09:48:43;11.40;;;7.07;;
16510;SDS011;8368;48.772;8.754;2023-03-01T09:51:31;15.73;;;7.57;;
16510;SDS011;8368;48.772;8.754;2023-03-01T09:54:00;12.37;;;7.87;;
16510;SDS011;8368;48.772;8.754;2023-03-01T09:56:30;10.83;;;7.67;;
16510;SDS011;8368;48.772;8.754;2023-03-01T09:59:19;10.90;;;6.63;;
16510;SDS011;8368;48.772;8.754;2023-03-01T10:02:21;10.47;;;7.23;;
16510;SDS011;8368;48.772;8.754;2023-03-01T10:10:34;11.10;;;6.97;;
16510;SDS011;8368;48.772;8.754;2023-03-01T10:13:04;11.13;;;6.10;;
16510;SDS011;8368;48.772;8.754;2023-03-01T10:15:44;9.93;;;6.63;;
16510;SDS011;8368;48.772;8.754;2023-03-01T10:18:20;12.07;;;6.83;;
16510;SDS011;8368;48.772;8.754;2023-03-01T10:20:53;12.83;;;6.97;;
16510;SDS011;8368;48.772;8.754;2023-03-01T10:23:27;10.40;;;5.97;;
16510;SDS011;8368;48.772;8.754;2023-03-01T10:26:18;13.83;;;7.33;;
16510;SDS011;8368;48.772;8.754;2023-03-01T10:29:09;8.20;;;6.30;;
16510;SDS011;8368;48.772;8.754;2023-03-01T10:31:38;11.03;;;7.03;;
16510;SDS011;8368;48.772;8.754;2023-03-01T10:36:44;14.93;;;8.47;;
16510;SDS011;8368;48.772;8.754;2023-03-01T10:39:18;14.53;;;7.30;;
16510;SDS011;8368;48.772;8.754;2023-03-01T10:41:56;9.60;;;6.87;;
16510;SDS011;8368;48.772;8.754;2023-03-01T10:44:35;9.27;;;6.33;;
16510;SDS011;8368;48.772;8.754;2023-03-01T10:47:01;13.27;;;7.33;;
16510;SDS011;8368;48.772;8.754;2023-03-01T10:49:26;11.60;;;6.80;;
16510;SDS011;8368;48.772;8.754;2023-03-01T10:51:52;11.80;;;7.73;;
16510;SDS011;8368;48.772;8.754;2023-03-01T10:54:20;8.83;;;6.23;;
16510;SDS011;8368;48.772;8.754;2023-03-01T10:56:51;13.23;;;7.30;;
16510;SDS011;8368;48.772;8.754;2023-03-01T10:59:37;11.10;;;7.60;;
16510;SDS011;8368;48.772;8.754;2023-03-01T11:02:12;12.07;;;8.17;;
16510;SDS011;8368;48.772;8.754;2023-03-01T11:07:52;11.93;;;6.17;;
16510;SDS011;8368;48.772;8.754;2023-03-01T11:10:23;13.63;;;8.03;;
16510;SDS011;8368;48.772;8.754;2023-03-01T11:12:52;15.67;;;8.07;;
16510;SDS011;8368;48.772;8.754;2023-03-01T11:15:27;12.23;;;7.13;;
16510;SDS011;8368;48.772;8.754;2023-03-01T11:17:54;11.47;;;7.77;;
16510;SDS011;8368;48.772;8.754;2023-03-01T11:20:35;12.00;;;7.03;;
16510;SDS011;8368;48.772;8.754;2023-03-01T11:23:03;10.87;;;7.07;;
16510;SDS011;8368;48.772;8.754;2023-03-01T11:25:35;10.40;;;7.23;;
16510;SDS011;8368;48.772;8.754;2023-03-01T11:28:05;9.37;;;6.87;;
16510;SDS011;8368;48.772;8.754;2023-03-01T11:30:35;12.50;;;7.57;;
16510;SDS011;8368;48.772;8.754;2023-03-01T11:35:37;10.80;;;7.17;;
16510;SDS011;8368;48.772;8.754;2023-03-01T11:38:13;11.77;;;7.53;;
16510;SDS011;8368;48.772;8.754;2023-03-01T11:40:52;9.87;;;6.67;;
16510;SDS011;8368;48.772;8.754;2023-03-01T11:49:39;11.40;;;7.50;;
16510;SDS011;8368;48.772;8.754;2023-03-01T11:52:45;9.73;;;6.40;;
16510;SDS011;8368;48.772;8.754;2023-03-01T11:55:46;12.63;;;7.23;;
16510;SDS011;8368;48.772;8.754;2023-03-01T12:01:21;11.87;;;7.37;;
16510;SDS011;8368;48.772;8.754;2023-03-01T12:06:57;13.57;;;7.67;;
16510;SDS011;8368;48.772;8.754;2023-03-01T12:12:19;13.43;;;7.50;;
16510;SDS011;8368;48.772;8.754;2023-03-01T12:15:25;13.10;;;7.47;;
16510;SDS011;8368;48.772;8.754;2023-03-01T12:18:17;12.30;;;7.70;;
16510;SDS011;8368;48.772;8.754;2023-03-01T12:23:48;12.43;;;7.50;;
16510;SDS011;8368;48.772;8.754;2023-03-01T12:26:47;14.63;;;7.47;;
16510;SDS011;8368;48.772;8.754;2023-03-01T12:29:31;11.87;;;6.60;;
16510;SDS011;8368;48.772;8.754;2023-03-01T12:35:05;14.43;;;7.50;;
16510;SDS011;8368;48.772;8.754;2023-03-01T12:37:36;13.17;;;7.63;;
16510;SDS011;8368;48.772;8.754;2023-03-01T12:45:40;13.47;;;6.93;;
16510;SDS011;8368;48.772;8.754;2023-03-01T12:48:56;14.07;;;8.03;;
16510;SDS011;8368;48.772;8.754;2023-03-01T12:51:24;11.17;;;5.80;;
16510;SDS011;8368;48.772;8.754;2023-03-01T12:53:54;11.87;;;7.30;;
16510;SDS011;8368;48.772;8.754;2023-03-01T12:56:23;15.60;;;7.83;;
16510;SDS011;8368;48.772;8.754;2023-03-01T12:58:56;11.50;;;7.17;;
16510;SDS011;8368;48.772;8.754;2023-03-01T13:11:59;10.77;;;6.33;;
16510;SDS011;8368;48.772;8.754;2023-03-01T13:16:53;10.53;;;6.40;;
16510;SDS011;8368;48.772;8.754;2023-03-01T13:19:20;13.47;;;7.40;;
16510;SDS011;8368;48.772;8.754;2023-03-01T13:21:48;11.90;;;6.73;;
16510;SDS011;8368;48.772;8.754;2023-03-01T13:32:27;9.83;;;6.00;;
16510;SDS011;8368;48.772;8.754;2023-03-01T13:37:36;10.70;;;7.23;;
16510;SDS011;8368;48.772;8.754;2023-03-01T13:40:04;8.87;;;6.20;;
16510;SDS011;8368;48.772;8.754;2023-03-01T13:42:51;10.47;;;7.37;;
16510;SDS011;8368;48.772;8.754;2023-03-01T13:47:58;9.70;;;6.70;;
16510;SDS011;8368;48.772;8.754;2023-03-01T13:50:28;10.43;;;7.03;;
16510;SDS011;8368;48.772;8.754;2023-03-01T13:53:00;12.03;;;7.77;;
16510;SDS011;8368;48.772;8.754;2023-03-01T13:55:36;9.93;;;7.60;;
16510;SDS011;8368;48.772;8.754;2023-03-01T13:58:21;12.33;;;7.50;;
16510;SDS011;8368;48.772;8.754;2023-03-01T14:00:55;13.20;;;7.37;;
16510;SDS011;8368;48.772;8.754;2023-03-01T14:03:22;9.53;;;6.67;;
16510;SDS011;8368;48.772;8.754;2023-03-01T14:06:02;13.30;;;8.23;;
16510;SDS011;8368;48.772;8.754;2023-03-01T14:08:34;13.70;;;7.53;;
16510;SDS011;8368;48.772;8.754;2023-03-01T14:14:08;12.73;;;7.03;;
16510;SDS011;8368;48.772;8.754;2023-03-01T14:17:03;11.13;;;7.23;;
16510;SDS011;8368;48.772;8.754;2023-03-01T14:19:43;11.10;;;6.93;;
16510;SDS011;8368;48.772;8.754;2023-03-01T14:22:17;15.50;;;7.70;;
16510;SDS011;8368;48.772;8.754;2023-03-01T14:25:05;11.90;;;8.07;;
16510;SDS011;8368;48.772;8.754;2023-03-01T14:27:42;11.13;;;7.63;;
16510;SDS011;8368;48.772;8.754;2023-03-01T14:32:48;15.07;;;7.90;;
16510;SDS011;8368;48.772;8.754;2023-03-01T14:35:22;11.40;;;7.70;;
16510;SDS011;8368;48.772;8.754;2023-03-01T14:37:49;11.47;;;7.57;;
16510;SDS011;8368;48.772;8.754;2023-03-01T14:40:28;12.33;;;7.07;;
16510;SDS011;8368;48.772;8.754;2023-03-01T14:43:00;14.23;;;7.63;;
16510;SDS011;8368;48.772;8.754;2023-03-01T14:45:33;13.77;;;8.00;;
16510;SDS011;8368;48.772;8.754;2023-03-01T14:47:59;10.40;;;7.20;;
16510;SDS011;8368;48.772;8.754;2023-03-01T14:50:30;13.33;;;7.80;;
16510;SDS011;8368;48.772;8.754;2023-03-01T14:53:06;10.53;;;7.67;;
16510;SDS011;8368;48.772;8.754;2023-03-01T14:55:56;10.90;;;6.90;;
16510;SDS011;8368;48.772;8.754;2023-03-01T14:58:30;12.30;;;6.97;;
16510;SDS011;8368;48.772;8.754;2023-03-01T15:00:59;9.50;;;7.30;;
16510;SDS011;8368;48.772;8.754;2023-03-01T15:03:29;10.63;;;6.67;;
16510;SDS011;8368;48.772;8.754;2023-03-01T15:06:02;13.80;;;7.17;;
16510;SDS011;8368;48.772;8.754;2023-03-01T15:08:29;12.73;;;7.00;;
16510;SDS011;8368;48.772;8.754;2023-03-01T15:11:02;11.50;;;7.47;;
16510;SDS011;8368;48.772;8.754;2023-03-01T15:13:31;12.83;;;7.03;;
16510;SDS011;8368;48.772;8.754;2023-03-01T15:16:18;10.13;;;6.67;;
16510;SDS011;8368;48.772;8.754;2023-03-01T15:18:50;13.77;;;6.60;;
16510;SDS011;8368;48.772;8.754;2023-03-01T15:23:50;9.97;;;6.37;;
16510;SDS011;8368;48.772;8.754;2023-03-01T15:26:26;12.67;;;6.87;;
16510;SDS011;8368;48.772;8.754;2023-03-01T15:28:55;11.93;;;7.57;;
16510;SDS011;8368;48.772;8.754;2023-03-01T15:31:36;11.93;;;6.93;;
16510;SDS011;8368;48.772;8.754;2023-03-01T15:36:51;13.27;;;7.00;;
16510;SDS011;8368;48.772;8.754;2023-03-01T15:41:53;11.10;;;7.33;;
16510;SDS011;8368;48.772;8.754;2023-03-01T15:44:30;11.33;;;7.23;;
16510;SDS011;8368;48.772;8.754;2023-03-01T15:46:58;11.43;;;6.67;;
16510;SDS011;8368;48.772;8.754;2023-03-01T15:49:37;15.73;;;6.93;;
16510;SDS011;8368;48.772;8.754;2023-03-01T15:52:09;10.37;;;6.90;;
16510;SDS011;8368;48.772;8.754;2023-03-01T15:54:59;10.27;;;6.90;;
16510;SDS011;8368;48.772;8.754;2023-03-01T15:57:27;13.10;;;6.77;;
16510;SDS011;8368;48.772;8.754;2023-03-01T15:59:53;11.63;;;6.67;;
16510;SDS011;8368;48.772;8.754;2023-03-01T16:02:22;14.67;;;8.07;;
16510;SDS011;8368;48.772;8.754;2023-03-01T16:04:49;13.97;;;7.63;;
16510;SDS011;8368;48.772;8.754;2023-03-01T16:07:14;14.00;;;7.40;;
16510;SDS011;8368;48.772;8.754;2023-03-01T16:09:40;12.53;;;6.87;;
16510;SDS011;8368;48.772;8.754;2023-03-01T16:12:08;11.23;;;7.20;;
16510;SDS011;8368;48.772;8.754;2023-03-01T16:14:38;14.60;;;7.23;;
16510;SDS011;8368;48.772;8.754;2023-03-01T16:17:04;11.13;;;6.40;;
16510;SDS011;8368;48.772;8.754;2023-03-01T16:19:30;8.53;;;5.93;;
16510;SDS011;8368;48.772;8.754;2023-03-01T16:21:55;11.40;;;6.37;;
16510;SDS011;8368;48.772;8.754;2023-03-01T16:24:21;14.97;;;7.40;;
16510;SDS011;8368;48.772;8.754;2023-03-01T16:26:46;11.13;;;6.50;;
16510;SDS011;8368;48.772;8.754;2023-03-01T16:29:12;13.67;;;7.37;;
16510;SDS011;8368;48.772;8.754;2023-03-01T16:31:37;11.63;;;6.37;;
16510;SDS011;8368;48.772;8.754;2023-03-01T16:34:03;9.53;;;6.53;;
16510;SDS011;8368;48.772;8.754;2023-03-01T16:36:29;13.20;;;6.73;;